createdAt,value
2022-12-16T00:01:06.712Z,99760.06
2022-12-16T00:03:34.942Z,99759.31
2022-12-16T00:06:04.845Z,99767.91
2022-12-16T00:08:36.514Z,99759.31
2022-12-16T00:11:04.125Z,99768.81
2022-12-16T00:13:32.600Z,99734.88
2022-12-16T00:16:00.261Z,99772.38
2022-12-16T00:18:27.825Z,99775.00
2022-12-16T00:20:55.576Z,99774.16
2022-12-16T00:23:24.359Z,99776.78
2022-12-16T00:25:51.986Z,99757.38
2022-12-16T00:28:22.495Z,99740.06
2022-12-16T00:30:50.020Z,99774.28
2022-12-16T00:33:17.679Z,99772.69
2022-12-16T00:35:46.120Z,99716.97
2022-12-16T00:40:34.445Z,99785.72
2022-12-16T00:43:01.961Z,99786.56
2022-12-16T00:45:29.519Z,99751.56
2022-12-16T00:47:56.979Z,99772.84
2022-12-16T00:50:24.441Z,99784.00
2022-12-16T00:52:51.867Z,99776.09
2022-12-16T00:55:19.560Z,99731.59
2022-12-16T00:57:48.301Z,99776.16
2022-12-16T01:00:16.727Z,99774.41
2022-12-16T01:02:44.949Z,99748.75
2022-12-16T01:05:13.496Z,99780.59
2022-12-16T01:07:40.984Z,99777.97
2022-12-16T01:10:09.374Z,99736.00
2022-12-16T01:12:36.997Z,99771.91
2022-12-16T01:15:07.073Z,99743.13
2022-12-16T01:17:35.190Z,99778.28
2022-12-16T01:20:02.838Z,99788.59
2022-12-16T01:22:30.816Z,99780.78
2022-12-16T01:24:58.256Z,99790.50
2022-12-16T01:27:25.672Z,99795.63
2022-12-16T01:29:53.074Z,99790.44
2022-12-16T01:32:24.156Z,99796.63
2022-12-16T01:34:55.081Z,99789.63
2022-12-16T01:37:23.158Z,99800.22
2022-12-16T01:39:50.784Z,99794.06
2022-12-16T01:42:19.492Z,99795.81
2022-12-16T01:44:48.251Z,99767.66
2022-12-16T01:47:16.858Z,99794.94
2022-12-16T01:49:47.339Z,99789.09
2022-12-16T01:52:17.115Z,99802.84
2022-12-16T01:54:45.772Z,99808.09
2022-12-16T01:57:14.239Z,99777.53
2022-12-16T01:59:42.667Z,99806.47
2022-12-16T02:02:10.443Z,99811.72
2022-12-16T02:04:57.978Z,99805.59
2022-12-16T02:07:26.733Z,99718.28
2022-12-16T02:09:54.219Z,99804.75
2022-12-16T02:12:24.326Z,99792.13
2022-12-16T02:15:10.405Z,99803.03
2022-12-16T02:17:41.803Z,99811.84
2022-12-16T02:20:40.178Z,99810.91
2022-12-16T02:23:31.288Z,99802.38
2022-12-16T02:26:12.970Z,99739.25
2022-12-16T02:29:00.507Z,99795.88
2022-12-16T02:31:29.996Z,99804.06
2022-12-16T02:34:02.987Z,99803.22
2022-12-16T02:36:38.670Z,99802.31
2022-12-16T02:39:07.313Z,99815.53
2022-12-16T02:41:38.742Z,99817.22
2022-12-16T02:44:07.265Z,99724.66
2022-12-16T02:46:40.760Z,99784.47
2022-12-16T02:49:08.511Z,99796.31
2022-12-16T02:51:36.243Z,99800.72
2022-12-16T02:54:03.806Z,99796.31
2022-12-16T02:56:37.024Z,99799.00
2022-12-16T02:59:14.858Z,99800.75
2022-12-16T03:01:47.327Z,99803.34
2022-12-16T03:04:16.736Z,99733.34
2022-12-16T03:06:45.546Z,99801.56
2022-12-16T03:09:13.764Z,99802.50
2022-12-16T03:11:41.249Z,99799.00
2022-12-16T03:14:08.680Z,99791.31
2022-12-16T03:16:36.191Z,99796.44
2022-12-16T03:19:06.667Z,99802.56
2022-12-16T03:21:35.616Z,99804.31
2022-12-16T03:24:03.227Z,99755.75
2022-12-16T03:26:32.296Z,99801.81
2022-12-16T03:29:01.541Z,99749.44
2022-12-16T03:31:32.593Z,99795.69
2022-12-16T03:34:01.168Z,99799.19
2022-12-16T03:36:30.782Z,99792.25
2022-12-16T03:38:58.183Z,99697.38
2022-12-16T03:41:25.613Z,99801.88
2022-12-16T03:43:53.450Z,99806.28
2022-12-16T03:46:20.951Z,99801.06
2022-12-16T03:48:49.784Z,99804.56
2022-12-16T03:51:17.290Z,99677.03
2022-12-16T03:53:46.100Z,99798.50
2022-12-16T03:56:13.795Z,99791.69
2022-12-16T03:58:41.360Z,99807.25
2022-12-16T04:01:09.321Z,99799.44
2022-12-16T04:03:37.189Z,99805.56
2022-12-16T04:06:05.081Z,99803.81
2022-12-16T04:08:32.514Z,99808.25
2022-12-16T04:11:18.830Z,99798.56
2022-12-16T04:14:04.209Z,99803.88
2022-12-16T04:16:49.492Z,99814.41
2022-12-16T04:19:39.265Z,99719.50
2022-12-16T04:22:27.201Z,99811.00
2022-12-16T04:24:54.660Z,99823.28
2022-12-16T04:27:27.560Z,99817.94
2022-12-16T04:30:12.906Z,99818.88
2022-12-16T04:32:58.059Z,99818.94
2022-12-16T04:35:43.371Z,99825.97
2022-12-16T04:38:28.549Z,99838.16
2022-12-16T04:41:13.811Z,99835.59
2022-12-16T04:43:59.598Z,99838.22
2022-12-16T04:46:45.097Z,99848.75
2022-12-16T04:49:30.334Z,99847.91
2022-12-16T04:52:15.724Z,99851.38
2022-12-16T04:55:01.188Z,99844.47
2022-12-16T04:57:46.459Z,99849.72
2022-12-16T05:00:32.867Z,99858.53
2022-12-16T05:03:18.225Z,99856.81
2022-12-16T05:06:03.285Z,99859.44
2022-12-16T05:08:48.574Z,99862.97
2022-12-16T05:11:33.816Z,99863.91
2022-12-16T05:14:19.141Z,99870.06
2022-12-16T05:17:05.793Z,99870.06
2022-12-16T05:19:51.004Z,99846.00
2022-12-16T05:22:36.295Z,99870.06
2022-12-16T05:25:21.464Z,99877.09
2022-12-16T05:28:09.376Z,99872.69
2022-12-16T05:30:54.908Z,99876.22
2022-12-16T05:33:42.267Z,99879.78
2022-12-16T05:36:27.484Z,99878.06
2022-12-16T05:39:12.771Z,99886.75
2022-12-16T05:41:58.092Z,99892.88
2022-12-16T05:44:43.140Z,99891.13
2022-12-16T05:47:28.315Z,99895.59
2022-12-16T05:50:14.900Z,99893.81
2022-12-16T05:53:00.148Z,99898.25
2022-12-16T05:55:45.305Z,99850.53
2022-12-16T05:58:30.778Z,99915.75
2022-12-16T06:01:16.047Z,99918.38
2022-12-16T06:04:01.393Z,99914.06
2022-12-16T06:06:48.002Z,99911.53
2022-12-16T06:09:33.305Z,99908.09
2022-12-16T06:12:18.550Z,99925.47
2022-12-16T06:15:03.690Z,99922.84
2022-12-16T06:17:49.084Z,99929.00
2022-12-16T06:20:34.250Z,99928.16
2022-12-16T06:23:24.095Z,99933.41
2022-12-16T06:26:11.003Z,99943.13
2022-12-16T06:28:56.364Z,99943.97
2022-12-16T06:31:41.603Z,99943.97
2022-12-16T06:34:26.936Z,99953.56
2022-12-16T06:37:12.153Z,99970.13
2022-12-16T06:39:58.853Z,99956.22
2022-12-16T06:42:44.049Z,99969.22
2022-12-16T06:45:34.455Z,99976.94
2022-12-16T06:48:20.266Z,99971.97
2022-12-16T06:51:05.643Z,99985.59
2022-12-16T06:53:50.877Z,99986.47
2022-12-16T06:56:37.578Z,99989.91
2022-12-16T06:59:22.866Z,99990.75
2022-12-16T07:02:08.304Z,99984.78
2022-12-16T07:04:53.502Z,99997.69
2022-12-16T07:07:38.822Z,100004.66
2022-12-16T07:10:24.767Z,100010.78
2022-12-16T07:13:11.303Z,100014.28
2022-12-16T07:15:56.628Z,100023.03
2022-12-16T07:18:42.077Z,100024.75
2022-12-16T07:21:27.426Z,100023.25
2022-12-16T07:24:12.927Z,100012.88
2022-12-16T07:26:58.169Z,100048.28
2022-12-16T07:29:49.889Z,100044.88
2022-12-16T07:32:36.245Z,100050.13
2022-12-16T07:35:21.496Z,100058.91
2022-12-16T07:38:02.882Z,100065.09
2022-12-16T07:40:48.334Z,99981.53
2022-12-16T07:43:34.310Z,100064.47
2022-12-16T07:46:20.859Z,100074.09
2022-12-16T07:49:06.091Z,100072.38
2022-12-16T07:51:51.489Z,100069.13
2022-12-16T07:54:36.899Z,99992.75
2022-12-16T07:57:22.273Z,100085.34
2022-12-16T08:00:07.611Z,100088.84
2022-12-16T08:02:55.207Z,100090.75
2022-12-16T08:05:40.942Z,100043.75
2022-12-16T08:08:26.245Z,100046.31
2022-12-16T08:11:11.526Z,100108.16
2022-12-16T08:13:56.976Z,100114.31
2022-12-16T08:16:42.304Z,100111.69
2022-12-16T08:19:28.564Z,100120.38
2022-12-16T08:22:13.967Z,100107.72
2022-12-16T08:24:59.353Z,100137.00
2022-12-16T08:27:44.644Z,100130.00
2022-12-16T08:30:30.469Z,100111.25
2022-12-16T08:33:19.575Z,100136.91
2022-12-16T08:36:06.271Z,100142.88
2022-12-16T08:38:51.599Z,100060.44
2022-12-16T08:41:36.900Z,100142.06
2022-12-16T08:44:22.371Z,100112.03
2022-12-16T08:47:07.717Z,100151.53
2022-12-16T08:49:57.682Z,100076.16
2022-12-16T08:52:47.929Z,100093.44
2022-12-16T08:55:33.432Z,100168.06
2022-12-16T08:58:18.720Z,100169.78
2022-12-16T09:01:07.570Z,100107.09
2022-12-16T09:03:53.229Z,100143.81
2022-12-16T09:06:43.525Z,100147.41
2022-12-16T09:09:29.492Z,100171.50
2022-12-16T09:12:14.925Z,100174.94
2022-12-16T09:15:00.252Z,100150.84
2022-12-16T09:17:45.674Z,100182.75
2022-12-16T09:20:30.957Z,100177.41
2022-12-16T09:23:25.518Z,100114.94
2022-12-16T09:26:12.125Z,100186.09
2022-12-16T09:28:57.568Z,100177.28
2022-12-16T09:31:42.721Z,100177.41
2022-12-16T09:34:28.035Z,100186.00
2022-12-16T09:37:13.392Z,100183.38
2022-12-16T09:39:58.714Z,100189.47
2022-12-16T09:42:47.615Z,100118.16
2022-12-16T09:45:35.118Z,100194.66
2022-12-16T09:48:23.514Z,100199.09
2022-12-16T09:51:08.873Z,100201.66
2022-12-16T09:53:54.733Z,100207.75
2022-12-16T09:56:43.926Z,100209.50
2022-12-16T09:59:31.472Z,100207.72
2022-12-16T10:02:17.086Z,100212.09
2022-12-16T10:05:02.388Z,100207.66
2022-12-16T10:07:45.009Z,100212.81
2022-12-16T10:10:36.558Z,100133.72
2022-12-16T10:13:24.395Z,100209.19
2022-12-16T10:16:13.965Z,100209.09
2022-12-16T10:19:04.649Z,100197.78
2022-12-16T10:21:52.514Z,100215.06
2022-12-16T10:24:44.050Z,100210.63
2022-12-16T10:27:31.218Z,100143.66
2022-12-16T10:30:16.205Z,100206.19
2022-12-16T10:33:03.985Z,100203.50
2022-12-16T10:35:51.530Z,100200.81
2022-12-16T10:38:38.751Z,100124.50
2022-12-16T10:41:23.980Z,100208.53
2022-12-16T10:44:09.421Z,100204.06
2022-12-16T10:46:54.362Z,100205.63
2022-12-16T10:49:41.895Z,100205.25
2022-12-16T10:52:34.198Z,100180.75
2022-12-16T10:55:23.207Z,100212.34
2022-12-16T10:58:17.084Z,100204.03
2022-12-16T11:01:03.832Z,100150.59
2022-12-16T11:03:49.692Z,100181.41
2022-12-16T11:06:38.754Z,100201.59
2022-12-16T11:09:34.952Z,100177.66
2022-12-16T11:12:35.703Z,100173.97
2022-12-16T11:15:29.110Z,100215.16
2022-12-16T11:18:20.889Z,100209.84
2022-12-16T11:21:17.280Z,100209.78
2022-12-16T11:24:03.854Z,100210.59
2022-12-16T11:26:49.041Z,100211.47
2022-12-16T11:29:35.352Z,100094.69
2022-12-16T11:32:22.230Z,100151.44
2022-12-16T11:35:12.159Z,100222.75
2022-12-16T11:37:57.474Z,100147.94
2022-12-16T11:40:43.932Z,100214.81
2022-12-16T11:43:31.136Z,100220.78
2022-12-16T11:46:16.419Z,100197.50
2022-12-16T11:49:02.824Z,100170.06
2022-12-16T11:51:49.108Z,100214.19
2022-12-16T11:54:36.018Z,100153.28
2022-12-16T11:57:22.522Z,100225.34
2022-12-16T12:00:10.465Z,100172.09
2022-12-16T12:02:57.770Z,100222.56
2022-12-16T12:06:00.635Z,100225.22
2022-12-16T12:08:48.719Z,100229.66
2022-12-16T12:11:35.793Z,100227.00
2022-12-16T12:14:26.506Z,100233.91
2022-12-16T12:17:18.249Z,100167.75
2022-12-16T12:20:08.518Z,100232.22
2022-12-16T12:22:54.803Z,100235.69
2022-12-16T12:25:44.122Z,100169.56
2022-12-16T12:28:36.055Z,100205.84
2022-12-16T12:31:25.400Z,100246.97
2022-12-16T12:34:14.992Z,100245.22
2022-12-16T12:37:02.800Z,100257.47
2022-12-16T12:39:50.245Z,100248.63
2022-12-16T12:42:50.226Z,100252.94
2022-12-16T12:46:02.343Z,100258.16
2022-12-16T12:48:55.864Z,100176.78
2022-12-16T12:51:44.355Z,100260.59
2022-12-16T12:54:33.714Z,100191.88
2022-12-16T12:57:19.149Z,100267.38
2022-12-16T13:00:07.160Z,100269.97
2022-12-16T13:02:57.648Z,100269.84
2022-12-16T13:05:44.039Z,100267.09
2022-12-16T13:09:04.555Z,100278.31
2022-12-16T13:11:49.920Z,100272.91
2022-12-16T13:15:13.038Z,100274.44
2022-12-16T13:18:38.281Z,100279.53
2022-12-16T13:22:02.023Z,100273.13
2022-12-16T13:24:58.501Z,100201.81
2022-12-16T13:27:43.812Z,100276.31
2022-12-16T13:30:40.443Z,100197.34
2022-12-16T13:33:26.862Z,100284.72
2022-12-16T13:36:12.537Z,100232.31
2022-12-16T13:39:04.601Z,100282.63
2022-12-16T13:42:07.777Z,100282.44
2022-12-16T13:45:15.219Z,100291.88
2022-12-16T13:48:20.507Z,100287.38
2022-12-16T13:51:06.260Z,100292.72
2022-12-16T13:53:53.017Z,100207.06
2022-12-16T13:56:42.973Z,100223.34
2022-12-16T13:59:32.973Z,100306.91
2022-12-16T14:02:21.494Z,100259.88
2022-12-16T14:05:08.680Z,100319.50
2022-12-16T14:07:56.939Z,100326.66
2022-12-16T14:10:42.275Z,100326.00
2022-12-16T14:13:31.095Z,100335.09
2022-12-16T14:16:19.757Z,100225.22
2022-12-16T14:19:12.945Z,100327.84
2022-12-16T14:22:01.132Z,100337.53
2022-12-16T14:24:46.585Z,100336.00
2022-12-16T14:27:32.970Z,100344.09
2022-12-16T14:30:19.971Z,100352.25
2022-12-16T14:33:05.310Z,100355.00
2022-12-16T14:35:50.578Z,100357.88
2022-12-16T14:38:41.511Z,100366.75
2022-12-16T14:41:30.287Z,100360.81
2022-12-16T14:44:15.627Z,100369.69
2022-12-16T14:47:02.102Z,100299.59
2022-12-16T14:49:47.884Z,100376.97
2022-12-16T14:52:37.292Z,100379.72
2022-12-16T14:55:31.085Z,100380.75
2022-12-16T14:58:24.525Z,100383.44
2022-12-16T15:01:15.563Z,100381.84
2022-12-16T15:04:03.715Z,100390.78
2022-12-16T15:06:50.612Z,100328.22
2022-12-16T15:09:40.362Z,100392.59
2022-12-16T15:12:26.108Z,100398.91
2022-12-16T15:15:11.209Z,100320.97
2022-12-16T15:18:01.901Z,100413.09
2022-12-16T15:20:49.310Z,100418.47
2022-12-16T15:23:37.173Z,100421.16
2022-12-16T15:26:22.318Z,100324.28
2022-12-16T15:29:07.747Z,100428.34
2022-12-16T15:31:54.085Z,100396.88
2022-12-16T15:34:55.371Z,100435.47
2022-12-16T15:37:43.051Z,100443.44
2022-12-16T15:40:38.570Z,100400.66
2022-12-16T15:43:38.395Z,100457.63
2022-12-16T15:46:31.829Z,100456.75
2022-12-16T15:49:16.732Z,100457.03
2022-12-16T15:52:02.387Z,100420.06
2022-12-16T15:54:48.963Z,100467.47
2022-12-16T15:57:47.540Z,100466.59
2022-12-16T16:00:38.628Z,100429.88
2022-12-16T16:03:24.057Z,100479.03
2022-12-16T16:06:09.172Z,100476.50
2022-12-16T16:08:54.400Z,100482.59
2022-12-16T16:11:40.878Z,100492.28
2022-12-16T16:14:26.266Z,100477.53
2022-12-16T16:17:11.681Z,100495.81
2022-12-16T16:20:03.051Z,100496.69
2022-12-16T16:22:49.019Z,100495.84
2022-12-16T16:25:34.349Z,100490.66
2022-12-16T16:28:20.809Z,100493.28
2022-12-16T16:31:06.133Z,100495.06
2022-12-16T16:33:51.084Z,100500.38
2022-12-16T16:36:36.377Z,100499.56
2022-12-16T16:39:21.725Z,100505.75
2022-12-16T16:42:06.879Z,100507.53
2022-12-16T16:44:53.307Z,100516.34
2022-12-16T16:47:38.433Z,100507.97
2022-12-16T16:50:24.657Z,100519.03
2022-12-16T16:53:09.969Z,100526.09
2022-12-16T16:55:55.135Z,100527.84
2022-12-16T16:58:42.261Z,100477.97
2022-12-16T17:01:30.331Z,100530.63
2022-12-16T17:04:15.882Z,100530.72
2022-12-16T17:07:01.221Z,100533.31
2022-12-16T17:09:48.773Z,100534.19
2022-12-16T17:12:36.907Z,100543.88
2022-12-16T17:15:31.351Z,100559.72
2022-12-16T17:18:17.844Z,100550.13
2022-12-16T17:21:03.193Z,100556.22
2022-12-16T17:23:48.416Z,100557.97
2022-12-16T17:26:33.745Z,100555.41
2022-12-16T17:29:19.105Z,100559.81
2022-12-16T17:32:04.371Z,100563.34
2022-12-16T17:34:51.018Z,100562.53
2022-12-16T17:37:38.239Z,100564.28
2022-12-16T17:40:23.975Z,100561.97
2022-12-16T17:43:09.317Z,100578.41
2022-12-16T17:45:54.539Z,100576.72
2022-12-16T17:48:45.326Z,100584.66
2022-12-16T17:51:32.255Z,100513.06
2022-12-16T17:54:23.673Z,100577.78
2022-12-16T17:57:10.455Z,100577.00
2022-12-16T17:59:54.687Z,100590.06
2022-12-16T18:02:40.340Z,100595.38
2022-12-16T18:05:38.793Z,100592.78
2022-12-16T18:08:27.863Z,100603.31
2022-12-16T18:11:13.149Z,100604.28
2022-12-16T18:13:58.330Z,100572.44
2022-12-16T18:16:43.781Z,100606.09
2022-12-16T18:19:29.760Z,100585.81
2022-12-16T18:22:15.062Z,100625.41
2022-12-16T18:25:01.629Z,100618.44
2022-12-16T18:27:46.974Z,100621.13
2022-12-16T18:30:32.396Z,100627.19
2022-12-16T18:33:17.428Z,100633.34
2022-12-16T18:36:02.865Z,100634.31
2022-12-16T18:38:48.011Z,100639.59
2022-12-16T18:41:35.565Z,100568.09
2022-12-16T18:44:20.892Z,100646.66
2022-12-16T18:47:06.113Z,100648.44
2022-12-16T18:49:51.301Z,100627.94
2022-12-16T18:52:36.474Z,100658.13
2022-12-16T18:55:21.683Z,100662.53
2022-12-16T18:58:21.140Z,100652.97
2022-12-16T19:01:19.252Z,100667.00
2022-12-16T19:04:04.340Z,100663.53
2022-12-16T19:06:49.769Z,100667.91
2022-12-16T19:09:35.021Z,100670.59
2022-12-16T19:12:20.201Z,100670.63
2022-12-16T19:15:06.784Z,100678.56
2022-12-16T19:18:03.666Z,100670.81
2022-12-16T19:20:48.913Z,100687.38
2022-12-16T19:23:34.577Z,100683.00
2022-12-16T19:26:19.851Z,100682.16
2022-12-16T19:29:05.193Z,100689.19
2022-12-16T19:31:51.962Z,100692.72
2022-12-16T19:34:37.130Z,100699.75
2022-12-16T19:37:22.392Z,100691.09
2022-12-16T19:40:07.818Z,100702.41
2022-12-16T19:42:52.996Z,100703.34
2022-12-16T19:45:40.897Z,100706.00
2022-12-16T19:48:27.704Z,100718.28
2022-12-16T19:51:15.615Z,100719.19
2022-12-16T19:54:01.201Z,100724.47
2022-12-16T19:56:46.475Z,100726.22
2022-12-16T19:59:31.716Z,100729.72
2022-12-16T20:02:13.268Z,100721.88
2022-12-16T20:04:59.759Z,100732.38
2022-12-16T20:07:44.931Z,100731.56
2022-12-16T20:10:30.203Z,100737.72
2022-12-16T20:13:22.854Z,100736.84
2022-12-16T20:16:10.180Z,100739.53
2022-12-16T20:22:07.459Z,100738.69
2022-12-16T20:27:58.667Z,100748.38
2022-12-16T20:30:43.878Z,100749.25
2022-12-16T20:33:31.152Z,100749.25
2022-12-16T20:36:16.400Z,100673.41
2022-12-16T20:39:02.849Z,100751.16
2022-12-16T20:41:48.286Z,100754.59
2022-12-16T20:44:33.593Z,100766.91
2022-12-16T20:47:18.916Z,100753.97
2022-12-16T20:50:04.171Z,100773.06
2022-12-16T20:52:49.347Z,100776.59
2022-12-16T20:55:36.073Z,100786.22
2022-12-16T20:58:21.456Z,100792.34
2022-12-16T21:01:09.661Z,100797.69
2022-12-16T21:03:54.894Z,100798.56
2022-12-16T21:06:37.859Z,100797.69
2022-12-16T21:09:23.117Z,100802.06
2022-12-16T21:12:09.619Z,100794.31
2022-12-16T21:15:00.989Z,100799.44
2022-12-16T21:17:46.322Z,100807.34
2022-12-16T21:20:31.595Z,100793.56
2022-12-16T21:23:17.843Z,100810.84
2022-12-16T21:26:03.294Z,100811.75
2022-12-16T21:28:49.837Z,100806.47
2022-12-16T21:31:35.149Z,100820.44
2022-12-16T21:34:20.372Z,100819.59
2022-12-16T21:37:05.661Z,100765.22
2022-12-16T21:39:50.834Z,100819.69
2022-12-16T21:42:41.063Z,100830.13
2022-12-16T21:45:30.436Z,100817.94
2022-12-16T21:48:15.768Z,100834.50
2022-12-16T21:51:01.027Z,100845.91
2022-12-16T21:53:46.647Z,100844.16
2022-12-16T21:56:32.047Z,100844.16
2022-12-16T21:59:17.255Z,100841.59
2022-12-16T22:02:04.561Z,100849.41
2022-12-16T22:04:49.656Z,100854.66
2022-12-16T22:07:34.924Z,100859.88
2022-12-16T22:10:20.448Z,100853.78
2022-12-16T22:13:05.773Z,100854.66
2022-12-16T22:15:50.978Z,100859.88
2022-12-16T22:18:38.468Z,100863.44
2022-12-16T22:21:23.606Z,100789.09
2022-12-16T22:24:08.897Z,100866.06
2022-12-16T22:26:54.091Z,100866.06
2022-12-16T22:29:41.632Z,100870.41
2022-12-16T22:32:26.993Z,100864.38
2022-12-16T22:35:13.486Z,100871.28
2022-12-16T22:37:58.724Z,100866.94
2022-12-16T22:40:44.077Z,100877.47
2022-12-16T22:43:29.356Z,100876.59
2022-12-16T22:46:17.983Z,100873.97
2022-12-16T22:49:04.616Z,100884.50
2022-12-16T22:51:51.191Z,100878.34
2022-12-16T22:54:36.880Z,100886.22
2022-12-16T22:57:22.129Z,100882.72
2022-12-16T23:00:07.452Z,100885.31
2022-12-16T23:02:52.757Z,100887.09
2022-12-16T23:05:38.925Z,100891.47
2022-12-16T23:08:28.061Z,100893.22
2022-12-16T23:11:12.518Z,100898.50
2022-12-16T23:13:57.814Z,100895.03
2022-12-16T23:16:43.124Z,100902.91
2022-12-16T23:19:28.398Z,100913.44
2022-12-16T23:22:12.882Z,100909.84
2022-12-16T23:24:59.380Z,100909.00
2022-12-16T23:27:46.869Z,100915.16
2022-12-16T23:30:32.213Z,100917.78
2022-12-16T23:33:17.435Z,100826.16
2022-12-16T23:36:02.751Z,100916.06
2022-12-16T23:38:47.844Z,100824.41
2022-12-16T23:41:34.333Z,100911.72
2022-12-16T23:44:19.631Z,100911.72
2022-12-16T23:47:04.819Z,100910.81
2022-12-16T23:49:50.040Z,100909.03
2022-12-16T23:52:35.245Z,100906.41
2022-12-16T23:55:20.549Z,100918.69
2022-12-16T23:58:07.140Z,100916.09
